Time;durP1;ratioP1;P1;durP2;ratioP2;P2;SDS_P1;SDS_P2;PMS_P1;PMS_P2;Temp;Humidity;BMP_temperature;BMP_pressure;BME280_temperature;BME280_humidity;BME280_pressure;Samples;Min_cycle;Max_cycle;Signal;HPM_P1;HPM_P2
2021/07/27 00:00:31;;;;;;;;;;;;;;;23.31;63.92;100736.63;2211046;39;115067;-53
2021/07/27 00:02:03;;;;;;;;;;;;;;;23.31;63.88;100730.97;2210972;39;114060;-54
2021/07/27 00:03:37;;;;;;;;;;;;;;;23.31;64.12;100722.50;2208879;39;114473;-54
2021/07/27 00:05:09;;;;;;;;;;;;;;;23.32;63.99;100722.19;2211136;39;115029;-54
2021/07/27 00:06:40;;;;;;;;;;;;;;;23.33;64.17;100714.56;2214879;39;115001;-54
2021/07/27 00:08:12;;;;;;;;;;;;;;;23.33;63.83;100712.59;2203824;39;116073;-54
2021/07/27 00:09:44;;;;;;;;;;;;;;;23.33;64.22;100708.94;2208819;39;114757;-54
2021/07/27 00:11:16;;;;;;;;;;;;;;;23.34;64.18;100716.22;2214018;39;114750;-53
2021/07/27 00:12:47;;;;;;;;;;;;;;;23.33;64.08;100709.75;2207887;39;115146;-53
2021/07/27 00:14:19;;;;;;;;;;;;;;;23.33;64.23;100711.75;2210400;39;115565;-53
2021/07/27 00:15:50;;;;;;;;;;;;;;;23.33;64.01;100706.94;2205884;39;115726;-54
2021/07/27 00:17:24;;;;;;;;;;;;;;;23.33;64.38;100709.75;2208655;39;115747;-54
2021/07/27 00:18:57;;;;;;;;;;;;;;;23.36;64.20;100716.72;2210021;39;115480;-54
2021/07/27 00:20:28;;;;;;;;;;;;;;;23.33;64.38;100715.41;2210698;39;115443;-53
2021/07/27 00:22:00;;;;;;;;;;;;;;;23.36;64.04;100716.72;2210872;39;114635;-53
2021/07/27 00:23:33;;;;;;;;;;;;;;;23.35;64.24;100729.97;2210999;39;115545;-54
2021/07/27 00:25:06;;;;;;;;;;;;;;;23.33;64.25;100726.69;2210640;39;115497;-53
2021/07/27 00:26:37;;;;;;;;;;;;;;;23.36;64.25;100726.00;2210954;39;115551;-54
2021/07/27 00:28:09;;;;;;;;;;;;;;;23.36;64.30;100719.53;2210179;39;114991;-53
2021/07/27 00:29:41;;;;;;;;;;;;;;;23.37;64.18;100718.38;2210908;39;115730;-54
2021/07/27 00:31:15;;;;;;;;;;;;;;;23.36;64.49;100711.06;2209231;39;115931;-53
2021/07/27 00:32:46;;;;;;;;;;;;;;;23.36;64.35;100717.53;2216198;39;115512;-53
2021/07/27 00:34:18;;;;;;;;;;;;;;;23.35;64.20;100715.03;2212912;39;113702;-53
2021/07/27 00:35:50;;;;;;;;;;;;;;;23.36;64.30;100720.38;2209974;39;113777;-54
2021/07/27 00:37:28;;;;;;;;;;;;;;;23.36;64.26;100711.06;2210238;39;114249;-53
2021/07/27 00:39:00;;;;;;;;;;;;;;;23.39;64.29;100719.69;2210596;39;113823;-54
2021/07/27 00:40:32;;;;;;;;;;;;;;;23.35;64.05;100713.06;2211593;39;114127;-53
2021/07/27 00:42:04;;;;;;;;;;;;;;;23.36;64.44;100717.53;2204397;39;113849;-54
2021/07/27 00:43:35;;;;;;;;;;;;;;;23.35;64.45;100715.88;2204240;39;114105;-54
2021/07/27 00:45:07;;;;;;;;;;;;;;;23.37;64.31;100704.28;2208318;39;113818;-53
2021/07/27 00:46:39;;;;;;;;;;;;;;;23.36;64.21;100708.25;2210652;39;113681;-53
2021/07/27 00:48:11;;;;;;;;;;;;;;;23.37;64.38;100713.56;2210855;39;113574;-54
2021/07/27 00:49:43;;;;;;;;;;;;;;;23.35;64.35;100715.03;2209906;39;113765;-54
2021/07/27 00:51:15;;;;;;;;;;;;;;;23.36;64.40;100725.16;2210704;39;113543;-53
2021/07/27 00:52:47;;;;;;;;;;;;;;;23.36;64.40;100726.00;2210772;39;113779;-54
2021/07/27 00:54:18;;;;;;;;;;;;;;;23.35;64.31;100713.06;2211414;39;113945;-54
2021/07/27 00:55:51;;;;;;;;;;;;;;;23.37;64.13;100713.56;2207627;39;114815;-54
2021/07/27 00:57:23;;;;;;;;;;;;;;;23.40;64.29;100717.69;2209975;39;115179;-54
2021/07/27 00:58:56;;;;;;;;;;;;;;;23.39;63.95;100711.22;2210884;39;115329;-54
2021/07/27 01:00:28;;;;;;;;;;;;;;;23.38;64.05;100708.75;2210494;39;113942;-54
2021/07/27 01:01:59;;;;;;;;;;;;;;;23.42;64.08;100704.09;2207419;39;115215;-54
2021/07/27 01:03:31;;;;;;;;;;;;;;;23.39;64.12;100707.59;2210716;39;116385;-54
2021/07/27 01:05:03;;;;;;;;;;;;;;;23.42;64.01;100706.94;2210524;39;113671;-54
2021/07/27 01:06:35;;;;;;;;;;;;;;;23.39;64.22;100701.97;2206155;39;114981;-53
2021/07/27 01:08:07;;;;;;;;;;;;;;;23.40;64.56;100707.25;2210619;39;115099;-54
2021/07/27 01:09:39;;;;;;;;;;;;;;;23.40;64.12;100709.25;2211170;39;115292;-54
2021/07/27 01:11:20;;;;;;;;;;;;;;;23.41;64.26;100708.09;2202940;39;114890;-54
2021/07/27 01:12:52;;;;;;;;;;;;;;;23.38;64.18;100709.59;2208272;39;114814;-53
2021/07/27 01:14:23;;;;;;;;;;;;;;;23.41;64.30;100708.91;2215138;39;113930;-53
2021/07/27 01:16:02;;;;;;;;;;;;;;;23.42;64.23;100706.94;2215497;39;115391;-54
2021/07/27 01:17:34;;;;;;;;;;;;;;;23.43;64.29;100700.13;2210183;39;115515;-54
2021/07/27 01:19:20;;;;;;;;;;;;;;;23.41;64.14;100706.09;2207152;39;115739;-54
2021/07/27 01:37:58;;;;;;;;;;;;;;;23.41;64.09;100711.72;2204461;39;115488;-53
2021/07/27 01:42:42;;;;;;;;;;;;;;;23.44;64.17;100699.81;2205275;39;114722;-54
2021/07/27 01:44:14;;;;;;;;;;;;;;;23.43;63.99;100694.50;2209549;39;113746;-53
2021/07/27 01:45:45;;;;;;;;;;;;;;;23.43;64.05;100703.78;2211848;39;113670;-54
2021/07/27 01:47:18;;;;;;;;;;;;;;;23.44;63.96;100693.34;2209822;39;113937;-53
2021/07/27 01:48:50;;;;;;;;;;;;;;;23.42;63.98;100696.47;2210308;39;113975;-53
2021/07/27 01:50:22;;;;;;;;;;;;;;;23.43;63.88;100698.16;2210590;39;113817;-57
2021/07/27 01:51:54;;;;;;;;;;;;;;;23.43;64.15;100692.50;2209414;39;113956;-53
2021/07/27 01:53:34;;;;;;;;;;;;;;;23.42;63.86;100685.19;2203524;39;113938;-54
2021/07/27 01:55:09;;;;;;;;;;;;;;;23.42;63.79;100690.84;2209694;39;113953;-54
2021/07/27 01:56:41;;;;;;;;;;;;;;;23.42;63.91;100695.66;2206618;39;114081;-54
2021/07/27 01:58:13;;;;;;;;;;;;;;;23.41;63.93;100693.97;2206779;39;114112;-54
2021/07/27 01:59:53;;;;;;;;;;;;;;;23.41;64.11;100691.16;2208875;39;114220;-53
2021/07/27 02:01:26;;;;;;;;;;;;;;;23.40;63.91;100690.34;2208305;39;113985;-54
2021/07/27 02:02:58;;;;;;;;;;;;;;;23.44;64.14;100687.69;2213655;39;113832;-54
2021/07/27 02:04:30;;;;;;;;;;;;;;;23.43;64.11;100689.69;2210334;39;115634;-53
2021/07/27 02:06:02;;;;;;;;;;;;;;;23.51;63.83;100690.84;2210157;39;114868;-54
2021/07/27 02:07:35;;;;;;;;;;;;;;;23.46;64.19;100697.50;2210442;39;115061;-53
2021/07/27 02:09:07;;;;;;;;;;;;;;;23.43;64.21;100689.69;2210361;39;115016;-53
2021/07/27 02:10:41;;;;;;;;;;;;;;;23.43;63.82;100691.66;2210516;39;115912;-53
2021/07/27 02:12:18;;;;;;;;;;;;;;;23.42;63.77;100687.19;2210311;39;113955;-54
2021/07/27 02:13:53;;;;;;;;;;;;;;;23.45;63.95;100693.00;2211411;39;115117;-54
2021/07/27 02:15:25;;;;;;;;;;;;;;;23.44;64.10;100687.69;2205097;39;115261;-53
2021/07/27 02:16:56;;;;;;;;;;;;;;;23.42;63.82;100690.00;2210959;39;114210;-53
2021/07/27 02:18:28;;;;;;;;;;;;;;;23.42;63.94;100682.38;2211240;39;115059;-53
2021/07/27 02:20:00;;;;;;;;;;;;;;;23.46;63.67;100689.03;2211296;39;114216;-53
2021/07/27 02:21:32;;;;;;;;;;;;;;;23.45;63.81;100686.53;2211188;39;114888;-54
2021/07/27 02:23:04;;;;;;;;;;;;;;;23.44;63.96;100685.72;2211341;39;114975;-54
2021/07/27 02:24:36;;;;;;;;;;;;;;;23.44;63.90;100694.16;2212961;39;115748;-53
2021/07/27 02:26:08;;;;;;;;;;;;;;;23.43;63.89;100686.03;2210954;39;115667;-54
2021/07/27 02:27:40;;;;;;;;;;;;;;;23.46;63.79;100682.56;2216234;39;115671;-54
2021/07/27 02:29:14;;;;;;;;;;;;;;;23.44;63.84;100690.53;2213199;39;115433;-53
2021/07/27 02:30:50;;;;;;;;;;;;;;;23.44;63.76;100693.34;2204842;39;114727;-54
2021/07/27 02:32:24;;;;;;;;;;;;;;;23.44;63.60;100702.63;2205229;39;114567;-54
2021/07/27 02:33:55;;;;;;;;;;;;;;;23.47;63.35;100701.16;2209357;39;115790;-54
2021/07/27 02:35:28;;;;;;;;;;;;;;;23.48;63.36;100708.44;2214276;39;115448;-54
2021/07/27 02:37:00;;;;;;;;;;;;;;;23.45;63.63;100707.13;2213935;39;115806;-54
2021/07/27 02:38:32;;;;;;;;;;;;;;;23.45;63.70;100706.28;2210636;39;115534;-53
2021/07/27 02:40:05;;;;;;;;;;;;;;;23.48;63.86;100712.06;2209477;39;115625;-53
2021/07/27 02:41:36;;;;;;;;;;;;;;;23.51;63.70;100706.94;2210375;39;114704;-54
2021/07/27 02:43:10;;;;;;;;;;;;;;;23.47;63.59;100720.88;2208618;39;115655;-53
2021/07/27 02:44:41;;;;;;;;;;;;;;;23.40;63.57;100718.53;2214275;39;115535;-53
2021/07/27 02:46:13;;;;;;;;;;;;;;;23.35;63.49;100737.59;2209665;39;115508;-53
2021/07/27 02:47:45;;;;;;;;;;;;;;;23.38;63.43;100732.16;2211325;39;113731;-54
2021/07/27 02:49:16;;;;;;;;;;;;;;;23.37;63.23;100738.94;2211613;39;113807;-54
2021/07/27 02:50:58;;;;;;;;;;;;;;;23.38;63.35;100731.31;2210144;39;113711;-52
2021/07/27 02:52:31;;;;;;;;;;;;;;;23.36;63.25;100730.81;2210385;39;113924;-54
2021/07/27 02:54:06;;;;;;;;;;;;;;;23.35;63.23;100738.44;2214174;39;113968;-53
2021/07/27 02:55:38;;;;;;;;;;;;;;;23.39;63.30;100742.25;2212800;39;113922;-54
2021/07/27 02:57:09;;;;;;;;;;;;;;;23.37;63.24;100741.75;2209955;39;113867;-54
2021/07/27 02:58:41;;;;;;;;;;;;;;;23.40;63.28;100729.81;2208678;39;113736;-54
2021/07/27 03:00:13;;;;;;;;;;;;;;;23.36;63.25;100733.63;2205862;39;113767;-54
2021/07/27 03:01:45;;;;;;;;;;;;;;;23.37;63.36;100732.47;2210968;39;114383;-54
2021/07/27 03:03:16;;;;;;;;;;;;;;;23.35;63.25;100741.25;2211250;39;113664;-54
2021/07/27 03:04:48;;;;;;;;;;;;;;;23.35;63.21;100737.59;2210780;39;113604;-54
2021/07/27 03:06:20;;;;;;;;;;;;;;;23.39;63.14;100747.09;2211295;39;113811;-53
2021/07/27 03:07:52;;;;;;;;;;;;;;;23.34;63.30;100735.97;2209951;39;113960;-53
2021/07/27 03:10:56;;;;;;;;;;;;;;;23.34;63.09;100736.81;2210909;39;114962;-53
2021/07/27 03:12:27;;;;;;;;;;;;;;;23.33;63.04;100731.47;2211357;39;113932;-54
2021/07/27 03:13:59;;;;;;;;;;;;;;;23.33;63.20;100732.31;2209983;39;115415;-53
2021/07/27 03:15:31;;;;;;;;;;;;;;;23.29;63.43;100727.69;2211073;39;114907;-53
2021/07/27 03:17:02;;;;;;;;;;;;;;;23.31;63.08;100722.50;2210939;39;113851;-53
2021/07/27 03:18:34;;;;;;;;;;;;;;;23.25;63.32;100732.31;2211116;39;115067;-54
2021/07/27 03:20:06;;;;;;;;;;;;;;;23.30;63.23;100720.88;2211524;39;115007;-53
2021/07/27 03:21:38;;;;;;;;;;;;;;;23.30;63.35;100724.53;2210459;39;114777;-54
2021/07/27 03:23:12;;;;;;;;;;;;;;;23.28;63.06;100721.22;2205060;39;114903;-54
2021/07/27 03:24:44;;;;;;;;;;;;;;;23.29;63.22;100716.41;2211887;39;114906;-54
2021/07/27 03:26:17;;;;;;;;;;;;;;;23.27;63.17;100716.72;2212695;39;113821;-53
2021/07/27 03:27:50;;;;;;;;;;;;;;;23.26;63.10;100720.69;2211000;39;115230;-53
2021/07/27 03:29:22;;;;;;;;;;;;;;;23.28;63.41;100714.72;2209686;39;114966;-54
2021/07/27 03:30:53;;;;;;;;;;;;;;;23.29;63.30;100725.69;2213380;39;114786;-54
2021/07/27 03:32:25;;;;;;;;;;;;;;;23.27;63.16;100716.72;2210565;39;116010;-53
2021/07/27 03:33:57;;;;;;;;;;;;;;;23.26;63.22;100719.91;2211269;39;115550;-53
2021/07/27 03:35:29;;;;;;;;;;;;;;;23.21;63.11;100720.88;2211560;39;115096;-53
2021/07/27 03:37:00;;;;;;;;;;;;;;;23.18;63.02;100715.06;2211233;39;114839;-53
2021/07/27 03:38:32;;;;;;;;;;;;;;;23.20;63.08;100713.59;2210806;39;115495;-54
2021/07/27 03:40:05;;;;;;;;;;;;;;;23.17;62.93;100717.06;2210748;39;114546;-53
2021/07/27 03:41:36;;;;;;;;;;;;;;;23.18;62.49;100713.06;2211234;39;114311;-53
2021/07/27 03:43:08;;;;;;;;;;;;;;;23.16;62.44;100711.78;2208834;39;115121;-54
2021/07/27 03:44:40;;;;;;;;;;;;;;;23.13;62.13;100704.78;2207580;39;115981;-53
2021/07/27 03:46:11;;;;;;;;;;;;;;;23.15;62.19;100705.28;2211074;39;115493;-54
2021/07/27 03:47:43;;;;;;;;;;;;;;;23.12;60.37;100708.78;2209289;39;114619;-54
2021/07/27 03:49:14;;;;;;;;;;;;;;;23.08;60.61;100701.34;2211557;39;114820;-54
2021/07/27 03:50:49;;;;;;;;;;;;;;;23.07;60.63;100714.59;2210847;39;114600;-53
2021/07/27 03:52:21;;;;;;;;;;;;;;;23.11;60.55;100697.84;2218516;39;115692;-54
2021/07/27 03:53:52;;;;;;;;;;;;;;;23.08;60.75;100690.84;2213116;39;113707;-53
2021/07/27 03:55:24;;;;;;;;;;;;;;;23.09;60.65;100678.44;2210762;39;113914;-54
2021/07/27 03:56:56;;;;;;;;;;;;;;;23.08;60.76;100702.13;2209538;39;114103;-54
2021/07/27 03:58:30;;;;;;;;;;;;;;;23.10;60.74;100694.19;2206427;39;114183;-53
2021/07/27 04:00:03;;;;;;;;;;;;;;;23.08;60.26;100693.69;2208441;39;114052;-53
2021/07/27 04:01:35;;;;;;;;;;;;;;;23.09;60.33;100695.34;2208289;39;113963;-53
2021/07/27 04:03:07;;;;;;;;;;;;;;;23.10;60.29;100696.19;2210111;39;113812;-54
2021/07/27 04:04:40;;;;;;;;;;;;;;;23.15;59.94;100710.09;2211411;39;113809;-54
2021/07/27 04:06:13;;;;;;;;;;;;;;;23.11;59.77;100707.13;2212053;39;114013;-53
2021/07/27 04:07:44;;;;;;;;;;;;;;;23.11;59.77;100706.28;2209118;39;113654;-53
2021/07/27 04:09:16;;;;;;;;;;;;;;;23.08;59.29;100712.59;2210608;39;114023;-54
2021/07/27 04:10:48;;;;;;;;;;;;;;;23.07;59.00;100723.03;2208720;39;113890;-53
2021/07/27 04:12:19;;;;;;;;;;;;;;;23.10;59.64;100728.00;2211096;39;113756;-54
2021/07/27 04:13:51;;;;;;;;;;;;;;;23.12;59.32;100716.41;2214054;39;113641;-54
2021/07/27 04:15:24;;;;;;;;;;;;;;;23.12;59.11;100727.69;2210626;39;114092;-54
2021/07/27 04:16:56;;;;;;;;;;;;;;;23.12;58.86;100720.06;2211289;39;115014;-54
2021/07/27 04:18:28;;;;;;;;;;;;;;;23.14;59.12;100725.34;2211072;39;115114;-53
2021/07/27 04:20:00;;;;;;;;;;;;;;;23.10;58.80;100719.56;2210623;39;114844;-54
2021/07/27 04:21:32;;;;;;;;;;;;;;;23.11;58.42;100720.38;2207174;39;115151;-53
2021/07/27 04:23:04;;;;;;;;;;;;;;;23.12;58.47;100719.22;2208532;39;114100;-54
2021/07/27 04:24:35;;;;;;;;;;;;;;;23.07;58.38;100725.03;2208786;39;115175;-54
2021/07/27 04:26:07;;;;;;;;;;;;;;;23.05;58.64;100734.63;2210672;39;115360;-54
2021/07/27 04:27:39;;;;;;;;;;;;;;;23.06;58.32;100732.66;2211143;39;114941;-53
2021/07/27 04:29:10;;;;;;;;;;;;;;;23.09;58.23;100737.63;2210949;39;115278;-54
2021/07/27 04:30:42;;;;;;;;;;;;;;;23.07;57.84;100734.31;2210115;39;114786;-53
2021/07/27 04:32:14;;;;;;;;;;;;;;;23.07;58.09;100734.31;2215319;39;115166;-53
2021/07/27 04:33:45;;;;;;;;;;;;;;;23.10;58.13;100725.19;2213344;39;114846;-54
2021/07/27 04:35:17;;;;;;;;;;;;;;;23.05;58.12;100726.19;2212585;39;114847;-54
2021/07/27 04:36:49;;;;;;;;;;;;;;;23.05;57.97;100728.16;2210167;39;115693;-53
2021/07/27 04:38:21;;;;;;;;;;;;;;;23.05;58.07;100731.00;2210112;39;114584;-53
2021/07/27 04:39:53;;;;;;;;;;;;;;;23.06;58.40;100727.00;2203285;39;115428;-54
2021/07/27 04:41:25;;;;;;;;;;;;;;;23.06;57.91;100729.84;2203100;39;115871;-53
2021/07/27 04:42:57;;;;;;;;;;;;;;;23.03;57.94;100722.06;2210386;39;117620;-54
2021/07/27 04:44:28;;;;;;;;;;;;;;;23.07;57.78;100725.88;2211111;39;115834;-53
2021/07/27 04:46:01;;;;;;;;;;;;;;;23.04;57.99;100723.69;2210518;39;115709;-54
2021/07/27 04:47:32;;;;;;;;;;;;;;;23.00;57.67;100719.88;2208301;39;114784;-54
2021/07/27 04:49:04;;;;;;;;;;;;;;;23.03;57.54;100724.88;2210679;39;114585;-54
2021/07/27 04:50:36;;;;;;;;;;;;;;;23.02;57.79;100721.22;2210988;39;115526;-53
2021/07/27 04:52:08;;;;;;;;;;;;;;;23.03;57.55;100724.88;2208116;39;115908;-54
2021/07/27 04:53:41;;;;;;;;;;;;;;;23.02;57.64;100715.59;2210561;39;116001;-54
2021/07/27 04:55:13;;;;;;;;;;;;;;;23.02;57.62;100720.38;2210595;39;114966;-53
2021/07/27 04:56:44;;;;;;;;;;;;;;;23.01;57.54;100716.72;2211046;39;115692;-53
2021/07/27 04:58:16;;;;;;;;;;;;;;;22.98;57.25;100705.31;2213347;39;115782;-53
2021/07/27 04:59:48;;;;;;;;;;;;;;;22.99;57.44;100701.31;2211047;39;113829;-54
2021/07/27 05:01:19;;;;;;;;;;;;;;;23.02;57.36;100700.66;2210656;39;113948;-53
2021/07/27 05:02:51;;;;;;;;;;;;;;;22.98;56.90;100699.66;2211355;39;113872;-54
2021/07/27 05:04:25;;;;;;;;;;;;;;;23.01;57.10;100697.00;2209603;39;113663;-54
2021/07/27 05:05:57;;;;;;;;;;;;;;;23.00;57.45;100691.69;2211105;39;113722;-53
2021/07/27 05:07:32;;;;;;;;;;;;;;;22.96;57.08;100700.00;2215623;39;113666;-54
2021/07/27 05:09:04;;;;;;;;;;;;;;;22.99;57.44;100688.03;2211664;39;113705;-54
2021/07/27 05:10:36;;;;;;;;;;;;;;;22.98;57.14;100682.75;2210719;39;113729;-54
2021/07/27 05:12:08;;;;;;;;;;;;;;;22.99;56.93;100687.22;2210112;39;114421;-54
2021/07/27 05:13:40;;;;;;;;;;;;;;;23.00;57.06;100680.41;2210430;39;113886;-54
2021/07/27 05:15:12;;;;;;;;;;;;;;;22.97;56.99;100681.94;2210665;39;114281;-54
2021/07/27 05:16:44;;;;;;;;;;;;;;;22.99;57.22;100682.41;2204936;39;114035;-53
2021/07/27 05:18:16;;;;;;;;;;;;;;;22.97;57.12;100687.56;2210119;39;114904;-53
2021/07/27 05:19:49;;;;;;;;;;;;;;;22.99;56.82;100681.56;2213547;39;113916;-54
2021/07/27 05:21:21;;;;;;;;;;;;;;;22.96;56.78;100685.91;2209130;39;114673;-53
2021/07/27 05:22:53;;;;;;;;;;;;;;;22.97;56.83;100676.28;2209767;39;114771;-53
2021/07/27 05:24:27;;;;;;;;;;;;;;;22.97;56.99;100675.47;2206165;39;114957;-53
2021/07/27 05:25:59;;;;;;;;;;;;;;;22.99;57.05;100678.75;2208624;39;114986;-54
2021/07/27 05:27:33;;;;;;;;;;;;;;;23.01;57.14;100677.28;2210723;39;114365;-53
2021/07/27 05:29:04;;;;;;;;;;;;;;;22.98;57.17;100677.13;2210493;39;114900;-54
2021/07/27 05:30:36;;;;;;;;;;;;;;;22.96;57.24;100677.44;2210556;39;114906;-54
2021/07/27 05:32:08;;;;;;;;;;;;;;;22.99;57.09;100670.31;2208373;39;114053;-53
2021/07/27 05:33:40;;;;;;;;;;;;;;;22.96;57.11;100670.97;2207728;39;113958;-54
2021/07/27 05:35:11;;;;;;;;;;;;;;;22.98;57.18;100672.31;2210134;39;114911;-54
2021/07/27 05:36:44;;;;;;;;;;;;;;;23.00;56.87;100672.81;2210892;39;114635;-53
2021/07/27 05:38:15;;;;;;;;;;;;;;;23.00;56.95;100675.63;2211174;39;115180;-54
2021/07/27 05:39:47;;;;;;;;;;;;;;;22.98;56.89;100665.84;2210441;39;114067;-53
2021/07/27 05:41:19;;;;;;;;;;;;;;;22.97;57.13;100667.84;2212554;39;114566;-54
2021/07/27 05:42:53;;;;;;;;;;;;;;;22.97;57.28;100672.66;2210373;39;114689;-54
2021/07/27 05:44:25;;;;;;;;;;;;;;;22.96;57.18;100673.78;2207652;39;115505;-54
2021/07/27 05:45:57;;;;;;;;;;;;;;;22.96;57.13;100676.63;2211057;39;115669;-53
2021/07/27 05:47:29;;;;;;;;;;;;;;;22.96;57.06;100673.78;2210381;39;116105;-54
2021/07/27 05:49:03;;;;;;;;;;;;;;;22.97;56.94;100675.47;2212875;39;115702;-54
2021/07/27 05:50:35;;;;;;;;;;;;;;;22.97;57.06;100673.47;2212365;39;115460;-53
2021/07/27 05:52:11;;;;;;;;;;;;;;;22.97;57.01;100662.19;2209455;39;115347;-54
2021/07/27 05:53:43;;;;;;;;;;;;;;;22.99;57.08;100668.31;2211255;39;115800;-54
2021/07/27 05:55:15;;;;;;;;;;;;;;;22.96;57.25;100670.97;2212383;39;114697;-53
2021/07/27 05:56:48;;;;;;;;;;;;;;;22.96;56.99;100665.34;2212284;39;115306;-53
2021/07/27 05:58:20;;;;;;;;;;;;;;;22.98;57.00;100668.66;2212132;39;115545;-54
2021/07/27 05:59:52;;;;;;;;;;;;;;;23.00;57.10;100667.16;2212737;39;116176;-54
2021/07/27 06:01:23;;;;;;;;;;;;;;;22.99;56.58;100665.50;2212777;39;115459;-53
2021/07/27 06:02:55;;;;;;;;;;;;;;;22.99;56.75;100681.56;2214286;39;115474;-54
2021/07/27 06:04:27;;;;;;;;;;;;;;;22.98;56.71;100663.03;2212254;39;113935;-54
2021/07/27 06:05:58;;;;;;;;;;;;;;;22.99;56.85;100657.03;2212367;39;113950;-54
2021/07/27 06:07:31;;;;;;;;;;;;;;;22.99;56.78;100664.66;2212652;39;113746;-54
2021/07/27 06:09:06;;;;;;;;;;;;;;;22.99;56.78;100670.31;2212697;39;113670;-54
2021/07/27 06:10:38;;;;;;;;;;;;;;;22.99;56.66;100659.03;2210965;39;113927;-53
2021/07/27 06:12:09;;;;;;;;;;;;;;;22.99;56.53;100648.59;2209612;39;114278;-54
2021/07/27 06:13:41;;;;;;;;;;;;;;;22.98;56.63;100654.59;2208131;39;113948;-54
2021/07/27 06:15:13;;;;;;;;;;;;;;;22.98;56.69;100652.59;2212027;39;114004;-53
2021/07/27 06:16:44;;;;;;;;;;;;;;;23.00;56.43;100660.69;2212344;39;113785;-54
2021/07/27 06:18:16;;;;;;;;;;;;;;;23.02;56.38;100652.75;2212689;39;113874;-54
2021/07/27 06:19:48;;;;;;;;;;;;;;;23.00;56.60;100655.91;2212864;39;113950;-54
2021/07/27 06:21:20;;;;;;;;;;;;;;;22.99;56.33;100657.03;2212226;39;113740;-53
2021/07/27 06:22:52;;;;;;;;;;;;;;;22.99;56.37;100668.31;2209592;39;113951;-54
2021/07/27 06:24:23;;;;;;;;;;;;;;;22.99;56.50;100656.22;2209936;39;114375;-53
2021/07/27 06:25:58;;;;;;;;;;;;;;;23.00;56.67;100658.72;2212848;39;114050;-53
2021/07/27 06:27:29;;;;;;;;;;;;;;;22.99;56.45;100664.66;2212165;39;114571;-54
2021/07/27 06:29:03;;;;;;;;;;;;;;;22.97;56.55;100653.75;2211612;39;114781;-54
2021/07/27 06:30:37;;;;;;;;;;;;;;;22.98;56.45;100663.03;2211271;39;115062;-53
2021/07/27 06:32:09;;;;;;;;;;;;;;;22.99;56.42;100667.47;2209570;39;115368;-54
2021/07/27 06:33:41;;;;;;;;;;;;;;;22.98;56.29;100665.84;2212047;39;113924;-54
2021/07/27 06:35:13;;;;;;;;;;;;;;;23.00;56.66;100667.16;2212542;39;115074;-53
2021/07/27 06:36:44;;;;;;;;;;;;;;;22.99;56.29;100657.03;2212935;39;115013;-54
2021/07/27 06:38:16;;;;;;;;;;;;;;;22.99;56.68;100664.66;2212504;39;113940;-53
2021/07/27 06:39:48;;;;;;;;;;;;;;;23.00;56.54;100669.97;2211224;39;115142;-54
2021/07/27 06:41:19;;;;;;;;;;;;;;;23.00;56.28;100658.72;2211772;39;114839;-53
2021/07/27 06:42:51;;;;;;;;;;;;;;;23.00;56.57;100669.97;2212758;39;115060;-54
2021/07/27 06:44:23;;;;;;;;;;;;;;;23.00;56.23;100672.81;2209526;39;114863;-53
2021/07/27 06:45:57;;;;;;;;;;;;;;;23.01;56.23;100674.47;2211034;39;113970;-53
2021/07/27 06:47:29;;;;;;;;;;;;;;;23.05;56.02;100671.81;2218781;39;115458;-54
2021/07/27 06:49:01;;;;;;;;;;;;;;;23.01;55.82;100673.63;2214007;39;115191;-54
2021/07/27 06:50:32;;;;;;;;;;;;;;;23.01;55.93;100679.28;2212573;39;115524;-53
2021/07/27 06:52:04;;;;;;;;;;;;;;;23.01;56.06;100682.91;2212423;39;117660;-54
2021/07/27 06:53:36;;;;;;;;;;;;;;;23.02;55.93;100680.94;2212479;39;115426;-54
2021/07/27 06:55:08;;;;;;;;;;;;;;;23.03;55.85;100680.59;2212704;39;116374;-54
2021/07/27 06:56:43;;;;;;;;;;;;;;;23.01;56.09;100677.28;2210061;39;115477;-53
2021/07/27 06:58:15;;;;;;;;;;;;;;;22.99;55.73;100682.41;2209490;39;115690;-54
2021/07/27 06:59:46;;;;;;;;;;;;;;;23.01;56.06;100682.09;2210696;39;115673;-53
2021/07/27 07:01:18;;;;;;;;;;;;;;;23.03;55.84;100685.41;2210950;39;115496;-54
2021/07/27 07:02:50;;;;;;;;;;;;;;;23.03;55.89;100686.22;2211311;39;115437;-53
2021/07/27 07:04:21;;;;;;;;;;;;;;;23.02;55.97;100683.75;2211472;39;115419;-53
2021/07/27 07:05:53;;;;;;;;;;;;;;;23.02;56.06;100700.66;2211336;39;114605;-54
2021/07/27 07:07:25;;;;;;;;;;;;;;;23.02;55.90;100692.22;2210849;39;115774;-54
2021/07/27 07:08:57;;;;;;;;;;;;;;;23.02;55.63;100697.84;2213478;39;116349;-54
2021/07/27 07:10:29;;;;;;;;;;;;;;;23.00;55.43;100700.97;2207148;39;114119;-54
2021/07/27 07:12:01;;;;;;;;;;;;;;;23.02;55.78;100697.84;2208100;39;113863;-54
2021/07/27 07:13:33;;;;;;;;;;;;;;;23.00;55.85;100695.34;2211466;39;113629;-54
2021/07/27 07:15:06;;;;;;;;;;;;;;;23.01;55.55;100696.19;2211313;39;113669;-53
2021/07/27 07:16:37;;;;;;;;;;;;;;;22.99;55.53;100701.31;2210566;39;113813;-54
2021/07/27 07:18:12;;;;;;;;;;;;;;;23.08;55.53;100712.59;2208671;39;113823;-53
2021/07/27 07:19:43;;;;;;;;;;;;;;;23.05;55.46;100714.06;2211266;39;113777;-54
2021/07/27 07:21:15;;;;;;;;;;;;;;;23.06;55.51;100707.28;2205175;39;114182;-53
2021/07/27 07:22:47;;;;;;;;;;;;;;;23.03;55.26;100710.78;2209091;39;114288;-53
2021/07/27 07:24:19;;;;;;;;;;;;;;;23.01;55.03;100711.09;2210697;39;113697;-53
2021/07/27 07:25:51;;;;;;;;;;;;;;;23.00;55.27;100709.44;2210057;39;113854;-53
2021/07/27 07:27:23;;;;;;;;;;;;;;;23.01;55.01;100707.44;2210149;39;114037;-54
2021/07/27 07:28:55;;;;;;;;;;;;;;;23.00;55.08;100714.25;2209181;39;113566;-54
2021/07/27 07:30:27;;;;;;;;;;;;;;;22.98;55.51;100714.59;2211004;39;113965;-53
2021/07/27 07:31:59;;;;;;;;;;;;;;;23.01;55.47;100707.44;2210810;39;114395;-53
2021/07/27 07:33:30;;;;;;;;;;;;;;;22.99;55.35;100721.03;2213132;39;114958;-54
2021/07/27 07:35:04;;;;;;;;;;;;;;;22.98;55.12;100713.75;2209933;39;114872;-53
2021/07/27 07:36:36;;;;;;;;;;;;;;;22.99;54.83;100712.56;2209603;39;114820;-54
2021/07/27 07:38:07;;;;;;;;;;;;;;;22.97;54.98;100712.94;2206497;39;115223;-53
2021/07/27 07:39:39;;;;;;;;;;;;;;;22.98;54.96;100711.78;2211313;39;114823;-54
2021/07/27 07:41:11;;;;;;;;;;;;;;;22.95;54.69;100709.59;2211140;39;114955;-53
2021/07/27 07:42:43;;;;;;;;;;;;;;;22.97;54.91;100712.94;2208688;39;115446;-54
2021/07/27 07:44:14;;;;;;;;;;;;;;;22.96;54.63;100708.44;2212649;39;115395;-54
2021/07/27 07:45:46;;;;;;;;;;;;;;;22.95;54.62;100709.59;2210471;39;114343;-53
2021/07/27 07:47:17;;;;;;;;;;;;;;;22.96;54.61;100705.63;2209116;39;114744;-54
2021/07/27 07:48:49;;;;;;;;;;;;;;;22.95;54.29;100708.75;2208196;39;114780;-54
2021/07/27 07:50:21;;;;;;;;;;;;;;;22.98;54.19;100700.50;2210723;39;113893;-53
2021/07/27 07:51:55;;;;;;;;;;;;;;;22.97;54.26;100703.63;2212921;39;114876;-54
2021/07/27 07:53:27;;;;;;;;;;;;;;;22.94;54.30;100707.13;2214314;39;115490;-54
2021/07/27 07:55:02;;;;;;;;;;;;;;;22.95;54.28;100712.41;2207283;39;115077;-53
2021/07/27 07:56:35;;;;;;;;;;;;;;;22.94;54.23;100705.13;2210191;39;116257;-53
2021/07/27 07:58:07;;;;;;;;;;;;;;;22.94;54.30;100701.50;2211330;39;115498;-53
2021/07/27 07:59:38;;;;;;;;;;;;;;;22.95;54.57;100700.31;2210965;39;115538;-53
2021/07/27 08:01:10;;;;;;;;;;;;;;;22.93;53.94;100713.91;2210686;39;114633;-54
2021/07/27 08:02:42;;;;;;;;;;;;;;;22.97;54.27;100704.47;2210192;39;115658;-54
2021/07/27 08:04:14;;;;;;;;;;;;;;;22.98;54.42;100702.50;2210704;39;115515;-53
2021/07/27 08:05:46;;;;;;;;;;;;;;;22.96;54.53;100708.44;2211136;39;115516;-54
2021/07/27 08:07:17;;;;;;;;;;;;;;;22.93;54.31;100708.28;2208855;39;114783;-54
2021/07/27 08:08:49;;;;;;;;;;;;;;;22.96;54.47;100704.78;2205544;39;115914;-53
2021/07/27 08:10:21;;;;;;;;;;;;;;;22.95;54.13;100706.78;2207655;39;115877;-53